createdAt,value
2022-12-05T00:00:17.388Z,58.53
2022-12-05T00:02:47.115Z,53.93
2022-12-05T00:05:16.877Z,55.35
2022-12-05T00:07:46.739Z,61.53
2022-12-05T00:10:17.298Z,61.30
2022-12-05T00:12:47.043Z,57.53
2022-12-05T00:15:16.781Z,54.63
2022-12-05T00:17:46.491Z,56.33
2022-12-05T00:20:15.991Z,70.83
2022-12-05T00:22:45.808Z,58.83
2022-12-05T00:25:15.569Z,60.37
2022-12-05T00:27:45.606Z,61.68
2022-12-05T00:30:15.170Z,57.77
2022-12-05T00:32:45.097Z,58.00
2022-12-05T00:35:14.549Z,55.17
2022-12-05T00:37:44.297Z,59.93
2022-12-05T00:40:15.157Z,59.04
2022-12-05T00:42:50.847Z,59.23
2022-12-05T00:45:16.177Z,54.00
2022-12-05T00:47:45.938Z,55.90
2022-12-05T00:50:15.680Z,62.85
2022-12-05T00:52:45.314Z,68.15
2022-12-05T00:55:15.059Z,71.07
2022-12-05T00:57:44.839Z,58.43
2022-12-05T01:00:14.828Z,67.50
2022-12-05T01:02:44.629Z,65.03
2022-12-05T01:05:14.092Z,67.90
2022-12-05T01:07:43.919Z,64.00
2022-12-05T01:10:15.692Z,70.20
2022-12-05T01:12:45.754Z,64.32
2022-12-05T01:15:15.503Z,66.95
2022-12-05T01:17:45.280Z,60.97
2022-12-05T01:20:15.024Z,67.00
2022-12-05T01:22:44.750Z,70.60
2022-12-05T01:25:14.498Z,72.97
2022-12-05T01:27:44.548Z,68.72
2022-12-05T01:30:15.049Z,68.26
2022-12-05T01:32:44.804Z,70.60
2022-12-05T01:35:14.644Z,69.15
2022-12-05T01:37:44.800Z,73.28
2022-12-05T01:40:14.448Z,76.05
2022-12-05T01:42:44.329Z,68.73
2022-12-05T01:45:19.589Z,65.10
2022-12-05T01:47:49.453Z,75.63
2022-12-05T01:50:19.048Z,74.90
2022-12-05T01:52:48.850Z,70.80
2022-12-05T01:55:20.233Z,71.22
2022-12-05T01:57:50.613Z,70.40
2022-12-05T02:00:21.373Z,73.27
2022-12-05T02:02:54.239Z,74.20
2022-12-05T02:05:29.986Z,75.95
2022-12-05T02:08:02.648Z,71.95
2022-12-05T02:10:37.976Z,74.67
2022-12-05T02:13:19.319Z,76.63
2022-12-05T02:15:57.915Z,79.53
2022-12-05T02:18:33.299Z,73.33
2022-12-05T02:21:29.679Z,70.63
2022-12-05T02:24:05.717Z,79.20
2022-12-05T02:26:53.046Z,80.90
2022-12-05T02:29:46.243Z,71.27
2022-12-05T02:32:24.650Z,78.43
2022-12-05T02:35:05.946Z,80.50
2022-12-05T02:40:28.910Z,79.05
2022-12-05T02:43:01.849Z,75.57
2022-12-05T02:45:35.173Z,75.78
2022-12-05T02:48:07.381Z,82.33
2022-12-05T02:50:40.020Z,75.27
2022-12-05T02:53:12.983Z,73.70
2022-12-05T02:55:45.057Z,74.42
2022-12-05T02:58:17.837Z,81.20
2022-12-05T03:00:50.659Z,73.37
2022-12-05T03:03:23.156Z,76.10
2022-12-05T03:05:58.434Z,74.70
2022-12-05T03:08:31.222Z,72.37
2022-12-05T03:11:03.159Z,68.67
2022-12-05T03:13:38.865Z,71.67
2022-12-05T03:16:12.943Z,74.60
2022-12-05T03:18:48.477Z,72.97
2022-12-05T03:21:22.315Z,72.03
2022-12-05T03:23:55.430Z,72.30
2022-12-05T03:26:37.686Z,75.70
2022-12-05T03:29:30.094Z,72.17
2022-12-05T03:32:05.690Z,69.77
2022-12-05T03:34:50.524Z,73.33
2022-12-05T03:37:23.577Z,65.25
2022-12-05T03:39:57.066Z,71.53
2022-12-05T03:42:32.251Z,66.47
2022-12-05T03:45:13.257Z,67.33
2022-12-05T03:47:51.808Z,73.60
2022-12-05T03:50:27.143Z,71.12
2022-12-05T03:55:36.760Z,61.80
2022-12-05T03:58:13.805Z,60.20
2022-12-05T04:03:18.741Z,62.90
2022-12-05T04:05:57.280Z,62.40
2022-12-05T04:08:32.450Z,63.55
2022-12-05T04:11:07.695Z,65.83
2022-12-05T04:13:57.475Z,62.43
2022-12-05T04:16:47.331Z,59.30
2022-12-05T04:19:25.908Z,61.00
2022-12-05T04:21:57.836Z,58.67
2022-12-05T04:24:50.851Z,57.67
2022-12-05T04:27:32.435Z,61.10
2022-12-05T04:30:11.253Z,62.53
2022-12-05T04:32:52.809Z,62.48
2022-12-05T04:35:25.591Z,60.40
2022-12-05T04:37:58.679Z,61.73
2022-12-05T04:40:34.536Z,60.10
2022-12-05T04:43:05.630Z,55.60
2022-12-05T04:45:38.709Z,58.92
2022-12-05T04:48:12.876Z,57.43
2022-12-05T04:50:45.507Z,63.58
2022-12-05T04:53:17.405Z,59.03
2022-12-05T04:55:50.023Z,62.20
2022-12-05T04:58:25.235Z,61.95
2022-12-05T05:01:15.031Z,52.60
2022-12-05T05:03:48.298Z,61.40
2022-12-05T05:06:18.488Z,61.90
2022-12-05T05:08:56.954Z,62.40
2022-12-05T05:11:31.978Z,58.20
2022-12-05T05:14:02.548Z,56.37
2022-12-05T05:16:34.799Z,55.20
2022-12-05T05:19:05.433Z,55.63
2022-12-05T05:21:37.695Z,62.53
2022-12-05T05:24:11.499Z,57.12
2022-12-05T05:26:43.574Z,60.30
2022-12-05T05:29:14.841Z,62.50
2022-12-05T05:31:44.763Z,58.13
2022-12-05T05:34:16.117Z,58.80
2022-12-05T05:36:45.869Z,62.30
2022-12-05T05:39:16.672Z,58.30
2022-12-05T05:41:46.508Z,60.63
2022-12-05T05:44:16.256Z,65.67
2022-12-05T05:46:46.075Z,55.97
2022-12-05T05:49:15.851Z,64.00
2022-12-05T05:51:45.890Z,59.85
2022-12-05T05:54:15.698Z,55.77
2022-12-05T05:56:45.501Z,60.50
2022-12-05T05:59:15.561Z,62.67
2022-12-05T06:01:45.008Z,62.83
2022-12-05T06:04:14.828Z,62.80
2022-12-05T06:06:44.316Z,66.80
2022-12-05T06:09:14.087Z,59.57
2022-12-05T06:11:43.868Z,63.67
2022-12-05T06:14:13.622Z,60.67
2022-12-05T06:16:43.757Z,59.60
2022-12-05T06:19:13.539Z,56.10
2022-12-05T06:21:43.278Z,59.90
2022-12-05T06:24:13.078Z,60.45
2022-12-05T06:26:43.561Z,64.23
2022-12-05T06:29:13.317Z,58.70
2022-12-05T06:31:43.493Z,60.27
2022-12-05T06:34:13.142Z,61.97
2022-12-05T06:36:42.984Z,59.53
2022-12-05T06:39:12.716Z,61.63
2022-12-05T06:41:42.557Z,63.33
2022-12-05T06:44:13.086Z,62.73
2022-12-05T06:46:42.822Z,59.50
2022-12-05T06:49:12.733Z,59.33
2022-12-05T06:51:42.490Z,61.03
2022-12-05T06:54:14.617Z,60.87
2022-12-05T06:56:44.654Z,65.60
2022-12-05T06:59:14.407Z,59.13
2022-12-05T07:01:46.333Z,52.80
2022-12-05T07:04:23.283Z,58.40
2022-12-05T07:06:55.735Z,63.83
2022-12-05T07:09:44.810Z,60.15
2022-12-05T07:12:16.709Z,60.05
2022-12-05T07:14:49.284Z,60.67
2022-12-05T07:17:22.924Z,58.27
2022-12-05T07:19:53.902Z,58.28
2022-12-05T07:22:24.307Z,56.45
2022-12-05T07:24:54.305Z,55.17
2022-12-05T07:27:27.690Z,54.17
2022-12-05T07:29:55.384Z,52.20
2022-12-05T07:32:25.229Z,57.45
2022-12-05T07:34:55.791Z,50.43
2022-12-05T07:37:25.712Z,56.03
2022-12-05T07:39:55.535Z,49.40
2022-12-05T07:42:25.451Z,54.95
2022-12-05T07:44:55.208Z,49.83
2022-12-05T07:47:25.077Z,51.83
2022-12-05T07:49:55.052Z,54.73
2022-12-05T07:52:24.647Z,54.30
2022-12-05T07:54:54.413Z,52.53
2022-12-05T07:57:24.176Z,50.33
2022-12-05T07:59:54.044Z,57.67
2022-12-05T08:02:24.116Z,52.03
2022-12-05T08:04:53.908Z,54.90
2022-12-05T08:07:23.752Z,57.53
2022-12-05T08:09:53.520Z,53.37
2022-12-05T08:12:23.034Z,54.27
2022-12-05T08:14:52.764Z,51.20
2022-12-05T08:17:22.538Z,58.00
2022-12-05T08:19:52.267Z,49.83
2022-12-05T08:22:22.031Z,50.63
2022-12-05T08:24:56.265Z,53.40
2022-12-05T08:27:23.554Z,48.30
2022-12-05T08:29:56.067Z,53.42
2022-12-05T08:32:27.249Z,47.70
2022-12-05T08:34:57.089Z,47.70
2022-12-05T08:37:26.924Z,47.63
2022-12-05T08:39:57.026Z,47.17
2022-12-05T08:42:26.783Z,43.42
2022-12-05T08:44:56.901Z,51.40
2022-12-05T08:47:27.228Z,45.87
2022-12-05T08:49:57.238Z,47.83
2022-12-05T08:52:27.063Z,52.27
2022-12-05T08:54:57.191Z,41.73
2022-12-05T08:57:27.324Z,44.33
2022-12-05T08:59:57.089Z,43.83
2022-12-05T09:02:26.619Z,41.15
2022-12-05T09:05:05.189Z,38.70
2022-12-05T09:07:28.551Z,37.13
2022-12-05T09:09:58.352Z,45.03
2022-12-05T09:12:27.928Z,38.90
2022-12-05T09:14:58.849Z,41.13
2022-12-05T09:17:28.671Z,38.03
2022-12-05T09:19:58.780Z,40.85
2022-12-05T09:22:28.553Z,38.07
2022-12-05T09:24:58.584Z,41.00
2022-12-05T09:27:29.920Z,36.30
2022-12-05T09:29:59.919Z,38.43
2022-12-05T09:32:29.821Z,39.63
2022-12-05T09:34:59.989Z,42.63
2022-12-05T09:37:39.342Z,38.90
2022-12-05T09:40:01.811Z,36.15
2022-12-05T09:42:56.764Z,36.03
2022-12-05T09:45:38.449Z,38.80
2022-12-05T09:48:15.475Z,36.38
2022-12-05T09:50:51.217Z,40.03
2022-12-05T09:53:31.981Z,35.08
2022-12-05T09:56:13.659Z,39.98
2022-12-05T09:58:54.892Z,36.20
2022-12-05T10:01:40.709Z,37.17
2022-12-05T10:04:35.708Z,34.43
2022-12-05T10:07:24.789Z,34.50
2022-12-05T10:10:10.311Z,30.10
2022-12-05T10:12:59.606Z,31.20
2022-12-05T10:15:35.605Z,29.07
2022-12-05T10:18:24.033Z,33.04
2022-12-05T10:20:56.952Z,30.50
2022-12-05T10:23:56.184Z,28.00
2022-12-05T10:26:04.210Z,29.83
2022-12-05T10:28:42.684Z,33.13
2022-12-05T10:31:15.645Z,30.57
2022-12-05T10:33:48.963Z,26.35
2022-12-05T10:36:19.047Z,28.67
2022-12-05T10:38:50.142Z,32.40
2022-12-05T10:41:19.982Z,28.93
2022-12-05T10:43:49.849Z,27.13
2022-12-05T10:46:19.676Z,27.97
2022-12-05T10:48:49.454Z,27.27
2022-12-05T10:51:22.245Z,28.03
2022-12-05T10:53:54.350Z,31.27
2022-12-05T10:56:45.053Z,29.63
2022-12-05T10:59:18.336Z,28.50
2022-12-05T11:01:56.936Z,28.97
2022-12-05T11:04:35.581Z,29.75
2022-12-05T11:07:06.547Z,27.98
2022-12-05T11:09:39.996Z,26.37
2022-12-05T11:12:17.086Z,22.32
2022-12-05T11:15:09.116Z,26.87
2022-12-05T11:17:40.941Z,25.43
2022-12-05T11:20:25.058Z,21.74
2022-12-05T11:22:58.743Z,21.07
2022-12-05T11:25:33.953Z,24.37
2022-12-05T11:28:24.395Z,21.43
2022-12-05T11:31:06.103Z,19.87
2022-12-05T11:33:37.321Z,22.63
2022-12-05T11:36:17.079Z,20.90
2022-12-05T11:38:47.000Z,23.30
2022-12-05T11:41:43.489Z,27.17
2022-12-05T11:44:28.059Z,21.25
2022-12-05T11:47:15.374Z,21.70
2022-12-05T11:50:02.909Z,18.80
2022-12-05T11:52:41.395Z,20.40
2022-12-05T11:55:16.803Z,18.67
2022-12-05T11:58:04.394Z,19.47
2022-12-05T12:01:04.055Z,19.93
2022-12-05T12:03:51.844Z,19.40
2022-12-05T12:06:27.189Z,17.20
2022-12-05T12:09:06.012Z,18.60
2022-12-05T12:11:44.683Z,17.87
2022-12-05T12:14:17.173Z,18.75
2022-12-05T12:16:55.550Z,17.93
2022-12-05T12:19:42.667Z,20.33
2022-12-05T12:22:22.764Z,18.17
2022-12-05T12:24:58.515Z,18.53
2022-12-05T12:27:58.665Z,18.30
2022-12-05T12:30:35.497Z,19.93
2022-12-05T12:33:11.594Z,22.00
2022-12-05T12:35:50.328Z,19.70
2022-12-05T12:41:31.762Z,18.12
2022-12-05T12:44:34.578Z,16.37
2022-12-05T12:47:25.342Z,22.97
2022-12-05T12:50:13.085Z,16.90
2022-12-05T12:52:57.593Z,17.43
2022-12-05T12:55:38.859Z,19.13
2022-12-05T12:58:42.152Z,16.47
2022-12-05T13:01:31.160Z,15.23
2022-12-05T13:04:07.195Z,16.70
2022-12-05T13:09:30.383Z,19.60
2022-12-05T13:12:05.904Z,14.77
2022-12-05T13:14:38.028Z,15.27
2022-12-05T13:17:09.594Z,16.80
2022-12-05T13:19:45.391Z,13.93
2022-12-05T13:22:16.853Z,15.97
2022-12-05T13:24:47.030Z,15.63
2022-12-05T13:27:22.312Z,17.90
2022-12-05T13:30:08.071Z,15.03
2022-12-05T13:32:38.148Z,15.37
2022-12-05T13:35:37.238Z,16.27
2022-12-05T13:38:41.218Z,17.48
2022-12-05T13:41:28.483Z,17.57
2022-12-05T13:44:06.290Z,19.90
2022-12-05T13:46:33.559Z,20.72
2022-12-05T13:49:07.382Z,23.23
2022-12-05T13:51:41.014Z,24.60
2022-12-05T13:54:18.223Z,24.63
2022-12-05T13:56:58.422Z,24.20
2022-12-05T14:00:00.552Z,24.50
2022-12-05T14:02:48.620Z,23.83
2022-12-05T14:05:21.206Z,26.95
2022-12-05T14:07:59.784Z,26.80
2022-12-05T14:10:38.641Z,24.17
2022-12-05T14:13:20.449Z,28.30
2022-12-05T14:15:52.414Z,24.15
2022-12-05T14:18:27.840Z,25.20
2022-12-05T14:21:12.090Z,27.10
2022-12-05T14:24:03.435Z,28.17
2022-12-05T14:26:42.204Z,32.05
2022-12-05T14:29:46.633Z,33.67
2022-12-05T14:32:25.306Z,31.00
2022-12-05T14:35:15.888Z,36.37
2022-12-05T14:38:08.750Z,34.35
2022-12-05T14:40:44.449Z,33.43
2022-12-05T14:43:35.280Z,29.07
2022-12-05T14:46:09.325Z,28.27
2022-12-05T14:48:47.314Z,30.90
2022-12-05T14:51:32.496Z,30.12
2022-12-05T14:54:19.831Z,30.07
2022-12-05T14:56:55.224Z,28.43
2022-12-05T15:00:02.847Z,28.23
2022-12-05T15:02:36.181Z,26.77
2022-12-05T15:05:16.548Z,24.87
2022-12-05T15:07:48.499Z,27.93
2022-12-05T15:10:23.990Z,25.45
2022-12-05T15:12:59.183Z,25.93
2022-12-05T15:15:32.391Z,24.67
2022-12-05T15:18:27.708Z,23.20
2022-12-05T15:21:22.785Z,24.30
2022-12-05T15:24:01.332Z,25.92
2022-12-05T15:26:54.323Z,23.40
2022-12-05T15:29:27.901Z,26.80
2022-12-05T15:32:02.889Z,26.73
2022-12-05T15:34:44.649Z,25.23
2022-12-05T15:37:36.787Z,22.00
2022-12-05T15:40:14.661Z,24.00
2022-12-05T15:42:47.324Z,22.33
2022-12-05T15:45:21.822Z,21.42
2022-12-05T15:47:59.909Z,23.67
2022-12-05T15:50:41.006Z,21.47
2022-12-05T15:53:16.422Z,20.03
2022-12-05T15:55:54.889Z,20.60
2022-12-05T15:58:36.054Z,24.43
2022-12-05T16:01:14.406Z,25.90
2022-12-05T16:04:02.370Z,20.40
2022-12-05T16:06:41.094Z,20.07
2022-12-05T16:09:19.505Z,15.77
2022-12-05T16:12:03.931Z,21.90
2022-12-05T16:17:14.023Z,13.67
2022-12-05T16:19:44.189Z,12.77
2022-12-05T16:22:23.215Z,10.30
2022-12-05T16:24:59.271Z,9.67
2022-12-05T16:27:31.922Z,7.87
2022-12-05T16:30:16.678Z,9.00
2022-12-05T16:32:49.101Z,6.50
2022-12-05T16:35:33.726Z,6.17
2022-12-05T16:38:29.754Z,7.40
2022-12-05T16:41:09.050Z,8.80
2022-12-05T16:43:41.904Z,6.37
2022-12-05T16:46:17.463Z,5.83
2022-12-05T16:48:49.657Z,6.78
2022-12-05T16:51:22.327Z,9.63
2022-12-05T16:53:54.571Z,5.57
2022-12-05T16:56:32.566Z,6.25
2022-12-05T16:59:04.810Z,6.47
2022-12-05T17:01:39.174Z,6.70
2022-12-05T17:04:12.856Z,5.78
2022-12-05T17:06:42.643Z,5.43
2022-12-05T17:09:13.112Z,7.50
2022-12-05T17:11:45.201Z,5.73
2022-12-05T17:14:16.557Z,4.87
2022-12-05T17:16:46.961Z,5.53
2022-12-05T17:19:16.760Z,4.90
2022-12-05T17:21:46.697Z,7.93
2022-12-05T17:24:19.046Z,5.50
2022-12-05T17:26:49.160Z,5.37
2022-12-05T17:29:19.053Z,7.17
2022-12-05T17:31:49.351Z,8.23
2022-12-05T17:34:19.513Z,6.60
2022-12-05T17:36:49.458Z,6.97
2022-12-05T17:39:22.417Z,5.87
2022-12-05T17:41:50.645Z,7.33
2022-12-05T17:44:20.481Z,7.53
2022-12-05T17:46:50.344Z,8.93
2022-12-05T17:49:20.204Z,8.17
2022-12-05T17:54:23.006Z,11.05
2022-12-05T17:56:52.820Z,7.93
2022-12-05T17:59:24.221Z,9.00
2022-12-05T18:01:53.963Z,11.10
2022-12-05T18:04:23.816Z,11.20
2022-12-05T18:06:53.572Z,10.20
2022-12-05T18:09:23.971Z,11.48
2022-12-05T18:11:53.777Z,11.10
2022-12-05T18:14:26.439Z,9.48
2022-12-05T18:16:56.505Z,10.87
2022-12-05T18:19:26.695Z,10.18
2022-12-05T18:21:56.421Z,10.00
2022-12-05T18:24:26.179Z,11.50
2022-12-05T18:26:56.082Z,10.10
2022-12-05T18:29:25.927Z,11.80
2022-12-05T18:31:55.771Z,9.23
2022-12-05T18:34:25.428Z,13.93
2022-12-05T18:36:56.055Z,8.87
2022-12-05T18:39:25.983Z,9.97
2022-12-05T18:41:55.744Z,10.43
2022-12-05T18:44:25.851Z,12.88
2022-12-05T18:46:55.593Z,11.70
2022-12-05T18:49:25.873Z,8.25
2022-12-05T18:51:55.626Z,11.23
2022-12-05T18:54:25.350Z,11.43
2022-12-05T18:56:55.377Z,8.75
2022-12-05T18:59:25.759Z,10.78
2022-12-05T19:01:56.021Z,9.33
2022-12-05T19:04:25.444Z,13.30
2022-12-05T19:06:58.562Z,12.20
2022-12-05T19:09:30.964Z,16.80
2022-12-05T19:12:01.554Z,11.43
2022-12-05T19:14:33.019Z,13.60
2022-12-05T19:17:04.331Z,10.47
2022-12-05T19:19:34.392Z,10.90
2022-12-05T19:22:04.134Z,10.87
2022-12-05T19:24:33.859Z,12.13
2022-12-05T19:27:03.892Z,9.40
2022-12-05T19:29:33.642Z,11.97
2022-12-05T19:32:03.424Z,12.00
2022-12-05T19:34:34.569Z,13.15
2022-12-05T19:37:04.288Z,16.03
2022-12-05T19:39:34.422Z,12.77
2022-12-05T19:42:04.205Z,14.80
2022-12-05T19:44:33.972Z,11.70
2022-12-05T19:47:03.775Z,13.67
2022-12-05T19:49:33.567Z,11.03
2022-12-05T19:52:03.965Z,13.03
2022-12-05T19:54:33.721Z,11.47
2022-12-05T19:57:03.514Z,11.73
2022-12-05T19:59:33.326Z,12.73
2022-12-05T20:02:03.542Z,11.05
2022-12-05T20:04:33.112Z,9.33
2022-12-05T20:07:02.909Z,11.73
2022-12-05T20:09:34.305Z,10.60
2022-12-05T20:12:04.553Z,12.50
2022-12-05T20:14:34.732Z,13.48
2022-12-05T20:17:05.365Z,13.80
2022-12-05T20:19:35.073Z,14.33
2022-12-05T20:22:05.125Z,13.20
2022-12-05T20:24:35.158Z,13.85
2022-12-05T20:27:06.261Z,9.97
2022-12-05T20:29:38.509Z,12.93
2022-12-05T20:32:09.080Z,11.87
2022-12-05T20:34:39.115Z,12.53
2022-12-05T20:37:09.245Z,12.13
2022-12-05T20:39:39.284Z,11.97
2022-12-05T20:42:08.840Z,15.20
2022-12-05T20:44:38.940Z,15.95
2022-12-05T20:47:08.665Z,10.77
2022-12-05T20:49:38.721Z,9.45
2022-12-05T20:52:08.467Z,10.30
2022-12-05T20:54:38.199Z,13.13
2022-12-05T20:57:08.423Z,12.13
2022-12-05T20:59:38.483Z,11.53
2022-12-05T21:02:08.625Z,11.33
2022-12-05T21:04:40.199Z,12.60
2022-12-05T21:07:10.324Z,13.32
2022-12-05T21:09:40.398Z,12.40
2022-12-05T21:12:12.265Z,16.27
2022-12-05T21:14:42.009Z,17.67
2022-12-05T21:17:13.389Z,16.07
2022-12-05T21:19:45.061Z,13.10
2022-12-05T21:22:15.142Z,13.28
2022-12-05T21:24:45.168Z,14.03
2022-12-05T21:27:14.936Z,14.97
2022-12-05T21:29:44.473Z,12.35
2022-12-05T21:32:15.329Z,13.00
2022-12-05T21:34:45.444Z,14.47
2022-12-05T21:37:15.159Z,13.60
2022-12-05T21:39:44.919Z,16.03
2022-12-05T21:42:14.355Z,13.30
2022-12-05T21:44:44.175Z,14.70
2022-12-05T21:47:14.090Z,11.50
2022-12-05T21:49:43.812Z,15.43
2022-12-05T21:52:13.871Z,12.60
2022-12-05T21:54:43.599Z,15.60
2022-12-05T21:57:13.633Z,14.15
2022-12-05T21:59:43.356Z,24.40
2022-12-05T22:02:13.182Z,11.00
2022-12-05T22:04:42.985Z,13.83
2022-12-05T22:07:12.782Z,13.40
2022-12-05T22:09:42.892Z,11.80
2022-12-05T22:12:14.547Z,13.28
2022-12-05T22:14:44.267Z,12.13
2022-12-05T22:17:14.322Z,12.35
2022-12-05T22:19:44.137Z,12.00
2022-12-05T22:22:15.476Z,11.52
2022-12-05T22:24:45.232Z,9.93
2022-12-05T22:27:14.976Z,10.17
2022-12-05T22:29:47.393Z,11.67
2022-12-05T22:32:16.709Z,10.08
2022-12-05T22:34:46.443Z,9.40
2022-12-05T22:37:16.189Z,11.27
2022-12-05T22:39:46.210Z,9.93
2022-12-05T22:42:15.978Z,9.80
2022-12-05T22:44:46.033Z,9.93
2022-12-05T22:47:16.060Z,10.18
2022-12-05T22:49:46.089Z,10.45
2022-12-05T22:52:15.928Z,8.47
2022-12-05T22:54:46.011Z,12.07
2022-12-05T22:57:15.736Z,10.43
2022-12-05T22:59:45.748Z,9.83
2022-12-05T23:02:15.486Z,11.37
2022-12-05T23:04:46.174Z,12.03
2022-12-05T23:07:15.975Z,10.33
2022-12-05T23:09:46.004Z,12.78
2022-12-05T23:12:15.726Z,6.60
2022-12-05T23:14:45.746Z,9.23
2022-12-05T23:17:15.470Z,11.97
2022-12-05T23:19:45.486Z,8.70
2022-12-05T23:22:14.980Z,8.80
2022-12-05T23:24:45.066Z,9.48
2022-12-05T23:27:16.033Z,9.67
2022-12-05T23:29:46.875Z,7.83
2022-12-05T23:32:16.587Z,7.40
2022-12-05T23:34:46.677Z,9.20
2022-12-05T23:37:16.412Z,10.90
2022-12-05T23:39:46.438Z,8.70
2022-12-05T23:42:16.163Z,8.00
2022-12-05T23:44:46.200Z,10.65
2022-12-05T23:47:16.026Z,9.77
2022-12-05T23:49:46.085Z,9.33
2022-12-05T23:52:15.807Z,9.13
2022-12-05T23:54:45.522Z,7.87
2022-12-05T23:57:17.786Z,7.60
2022-12-05T23:59:47.283Z,6.80
